Lake Quivira, Kansas
Current Conditions -  °F | °C
As of 6:13 AM on Friday 24 Oct 2014 (Local Time) from KOJC Reporting Station
Haze Haze  
Wind Chill: 12°   Ceiling: 100
Heat Index: 12°   Visibility: 1.2mi
Dew Point: 12°   Wind: 5mph
Humidity: 100%   Direction: 200°SSW
Pressure: 30.05"   Gusts: NA
Location:  39.0067°N, 94.7872°W
Report Text: KOJC 241113Z AUTO 20004KT 1 1/4SM BR OVC001 12/12 A3005 RMK AO2 T01220122
Loading
Personal Weather Stations






























Interactive Weather Map
Tropical Storm Tracking
New forecast layout! Learn more

10-Day Weather Forecast

Advertisements
Track Severe Weather on mobile